createdAt,value
2019-03-30T00:00:01.177Z,12.30
2019-03-30T00:02:30.303Z,12.28
2019-03-30T00:04:59.189Z,12.23
2019-03-30T00:07:29.120Z,12.20
2019-03-30T00:09:58.010Z,12.18
2019-03-30T00:12:26.888Z,12.15
2019-03-30T00:14:56.052Z,12.13
2019-03-30T00:17:26.478Z,12.10
2019-03-30T00:19:55.339Z,12.08
2019-03-30T00:22:25.304Z,12.05
2019-03-30T00:24:54.211Z,12.03
2019-03-30T00:27:23.090Z,12.00
2019-03-30T00:29:51.955Z,11.98
2019-03-30T00:32:21.254Z,11.95
2019-03-30T00:34:50.128Z,11.95
2019-03-30T00:37:19.399Z,11.92
2019-03-30T00:39:48.312Z,11.89
2019-03-30T00:42:17.189Z,11.86
2019-03-30T00:44:46.051Z,11.85
2019-03-30T00:47:15.228Z,11.81
2019-03-30T00:49:49.620Z,11.80
2019-03-30T00:52:15.833Z,11.78
2019-03-30T00:54:44.999Z,11.74
2019-03-30T00:57:13.873Z,11.71
2019-03-30T00:59:43.138Z,11.69
2019-03-30T01:02:11.996Z,11.67
2019-03-30T01:04:40.890Z,11.66
2019-03-30T01:07:09.760Z,11.64
2019-03-30T01:09:38.623Z,11.61
2019-03-30T01:12:07.468Z,11.56
2019-03-30T01:14:36.356Z,11.54
2019-03-30T01:17:05.262Z,11.49
2019-03-30T01:19:34.579Z,11.46
2019-03-30T01:22:03.392Z,11.42
2019-03-30T01:24:32.267Z,11.36
2019-03-30T01:27:01.099Z,11.35
2019-03-30T01:29:29.987Z,11.37
2019-03-30T01:31:58.809Z,11.37
2019-03-30T01:34:27.703Z,11.36
2019-03-30T01:36:57.726Z,11.34
2019-03-30T01:39:27.957Z,11.32
2019-03-30T01:41:56.780Z,11.28
2019-03-30T01:44:25.696Z,11.25
2019-03-30T01:46:54.540Z,11.21
2019-03-30T01:49:23.421Z,11.20
2019-03-30T01:51:52.270Z,11.16
2019-03-30T01:54:21.156Z,11.15
2019-03-30T01:56:49.993Z,11.13
2019-03-30T01:59:18.841Z,11.08
2019-03-30T02:01:48.053Z,11.01
2019-03-30T02:04:17.037Z,10.94
2019-03-30T02:06:45.878Z,10.86
2019-03-30T02:09:14.748Z,10.83
2019-03-30T02:11:43.585Z,10.81
2019-03-30T02:14:12.435Z,10.80
2019-03-30T02:16:41.587Z,10.74
2019-03-30T02:19:10.710Z,10.71
2019-03-30T02:21:39.617Z,10.68
2019-03-30T02:24:08.491Z,10.66
2019-03-30T02:26:37.352Z,10.64
2019-03-30T02:29:06.205Z,10.61
2019-03-30T02:31:53.270Z,10.59
2019-03-30T02:34:22.098Z,10.55
2019-03-30T02:36:50.939Z,10.52
2019-03-30T02:39:19.815Z,10.47
2019-03-30T02:41:48.733Z,10.44
2019-03-30T02:44:17.598Z,10.42
2019-03-30T02:46:46.722Z,10.41
2019-03-30T02:49:15.621Z,10.43
2019-03-30T02:51:44.493Z,10.39
2019-03-30T02:54:14.355Z,10.36
2019-03-30T02:56:43.455Z,10.35
2019-03-30T02:59:12.311Z,10.36
2019-03-30T03:01:41.516Z,10.35
2019-03-30T03:04:10.768Z,10.32
2019-03-30T03:06:40.056Z,10.29
2019-03-30T03:09:09.013Z,10.26
2019-03-30T03:11:37.888Z,10.24
2019-03-30T03:14:06.707Z,10.21
2019-03-30T03:16:35.601Z,10.18
2019-03-30T03:19:04.383Z,10.17
2019-03-30T03:21:33.244Z,10.15
2019-03-30T03:24:02.061Z,10.13
2019-03-30T03:26:31.015Z,10.13
2019-03-30T03:29:00.436Z,10.13
2019-03-30T03:31:29.222Z,10.10
2019-03-30T03:33:58.064Z,10.08
2019-03-30T03:36:27.232Z,10.07
2019-03-30T03:38:57.470Z,10.01
2019-03-30T03:41:26.674Z,10.00
2019-03-30T03:43:55.867Z,10.02
2019-03-30T03:46:25.253Z,10.00
2019-03-30T03:48:54.110Z,9.95
2019-03-30T03:51:26.124Z,9.94
2019-03-30T03:53:55.179Z,9.92
2019-03-30T03:56:28.150Z,9.90
2019-03-30T03:59:00.675Z,9.87
2019-03-30T04:01:34.064Z,9.82
2019-03-30T04:04:06.872Z,9.80
2019-03-30T04:06:40.085Z,9.74
2019-03-30T04:09:09.177Z,9.73
2019-03-30T04:11:41.945Z,9.69
2019-03-30T04:14:15.374Z,9.68
2019-03-30T04:16:44.277Z,9.68
2019-03-30T04:19:13.101Z,9.61
2019-03-30T04:21:44.194Z,9.61
2019-03-30T04:24:12.764Z,9.57
2019-03-30T04:26:41.635Z,9.54
2019-03-30T04:29:10.483Z,9.52
2019-03-30T04:31:39.731Z,9.50
2019-03-30T04:36:36.896Z,9.52
2019-03-30T04:39:06.081Z,9.46
2019-03-30T04:41:34.954Z,9.44
2019-03-30T04:44:03.809Z,9.42
2019-03-30T04:46:32.797Z,9.39
2019-03-30T04:49:01.901Z,9.35
2019-03-30T04:51:30.780Z,9.33
2019-03-30T04:53:59.578Z,9.31
2019-03-30T04:56:28.451Z,9.30
2019-03-30T04:58:58.531Z,9.30
2019-03-30T05:01:28.385Z,9.28
2019-03-30T05:03:57.238Z,9.25
2019-03-30T05:06:26.133Z,9.26
2019-03-30T05:08:54.981Z,9.24
2019-03-30T05:11:23.885Z,9.24
2019-03-30T05:13:52.731Z,9.22
2019-03-30T05:16:21.592Z,9.23
2019-03-30T05:18:50.469Z,9.21
2019-03-30T05:21:19.607Z,9.21
2019-03-30T05:23:48.444Z,9.21
2019-03-30T05:26:17.329Z,9.20
2019-03-30T05:28:46.208Z,9.21
2019-03-30T05:31:16.152Z,9.20
2019-03-30T05:33:44.991Z,9.18
2019-03-30T05:36:14.174Z,9.17
2019-03-30T05:38:43.315Z,9.17
2019-03-30T05:41:12.160Z,9.18
2019-03-30T05:43:40.983Z,9.17
2019-03-30T05:46:10.223Z,9.15
2019-03-30T05:48:39.082Z,9.13
2019-03-30T05:51:07.993Z,9.13
2019-03-30T05:53:36.818Z,9.11
2019-03-30T05:56:05.712Z,9.10
2019-03-30T05:58:34.517Z,9.09
2019-03-30T06:01:03.998Z,9.10
2019-03-30T06:03:32.815Z,9.10
2019-03-30T06:06:01.701Z,9.10
2019-03-30T06:08:30.538Z,9.12
2019-03-30T06:11:01.619Z,9.12
2019-03-30T06:13:30.425Z,9.14
2019-03-30T06:15:59.293Z,9.16
2019-03-30T06:18:28.507Z,9.20
2019-03-30T06:20:57.397Z,9.25
2019-03-30T06:23:27.574Z,9.30
2019-03-30T06:25:56.471Z,9.37
2019-03-30T06:28:25.365Z,9.44
2019-03-30T06:30:54.177Z,9.50
2019-03-30T06:33:23.031Z,9.56
2019-03-30T06:35:51.880Z,9.61
2019-03-30T06:38:21.102Z,9.68
2019-03-30T06:40:49.998Z,9.72
2019-03-30T06:43:18.887Z,9.78
2019-03-30T06:45:48.400Z,9.85
2019-03-30T06:48:18.817Z,9.93
2019-03-30T06:50:47.691Z,9.99
2019-03-30T06:53:16.814Z,10.08
2019-03-30T06:55:45.929Z,10.19
2019-03-30T06:58:14.761Z,10.29
2019-03-30T07:00:45.035Z,10.42
2019-03-30T07:03:14.438Z,10.53
2019-03-30T07:05:43.762Z,10.69
2019-03-30T07:08:16.370Z,10.86
2019-03-30T07:10:46.919Z,11.04
2019-03-30T07:13:16.113Z,11.25
2019-03-30T07:15:49.854Z,11.45
2019-03-30T07:18:19.660Z,11.70
2019-03-30T07:20:48.444Z,11.95
2019-03-30T07:23:17.275Z,12.21
2019-03-30T07:25:46.091Z,12.45
2019-03-30T07:28:25.684Z,12.70
2019-03-30T07:30:54.885Z,12.98
2019-03-30T07:33:24.863Z,13.29
2019-03-30T07:35:53.917Z,13.59
2019-03-30T07:38:22.754Z,13.86
2019-03-30T07:40:51.531Z,14.11
2019-03-30T07:43:20.386Z,14.40
2019-03-30T07:45:49.185Z,14.70
2019-03-30T07:48:18.023Z,15.00
2019-03-30T07:50:46.964Z,15.29
2019-03-30T07:53:26.424Z,15.58
2019-03-30T07:55:46.957Z,15.81
2019-03-30T07:58:15.827Z,16.06
2019-03-30T08:00:44.652Z,16.31
2019-03-30T08:03:13.520Z,16.57
2019-03-30T08:05:43.059Z,16.85
2019-03-30T08:08:13.308Z,17.07
2019-03-30T08:10:42.784Z,17.33
2019-03-30T08:13:11.635Z,17.63
2019-03-30T08:15:40.469Z,17.92
2019-03-30T08:18:09.385Z,18.22
2019-03-30T08:20:38.628Z,18.51
2019-03-30T08:23:07.496Z,18.76
2019-03-30T08:25:36.333Z,19.04
2019-03-30T08:28:05.226Z,19.26
2019-03-30T08:30:34.831Z,19.46
2019-03-30T08:33:03.756Z,19.74
2019-03-30T08:35:32.642Z,19.94
2019-03-30T08:38:01.556Z,20.16
2019-03-30T08:40:30.412Z,20.30
2019-03-30T08:42:59.261Z,20.41
2019-03-30T08:45:29.631Z,20.68
2019-03-30T08:47:59.499Z,20.89
2019-03-30T08:50:28.532Z,21.11
2019-03-30T08:52:57.475Z,21.45
2019-03-30T08:55:26.332Z,21.79
2019-03-30T08:57:55.255Z,22.09
2019-03-30T09:00:49.496Z,22.55
2019-03-30T09:03:18.459Z,23.01
2019-03-30T09:05:47.256Z,23.58
2019-03-30T09:08:16.098Z,24.09
2019-03-30T09:10:44.981Z,24.56
2019-03-30T09:13:13.920Z,24.97
2019-03-30T09:15:42.734Z,25.37
2019-03-30T09:18:11.603Z,25.75
2019-03-30T09:20:40.405Z,26.09
2019-03-30T09:23:09.247Z,26.43
2019-03-30T09:25:38.511Z,26.76
2019-03-30T09:28:07.406Z,27.09
2019-03-30T09:30:36.484Z,27.42
2019-03-30T09:33:05.862Z,27.70
2019-03-30T09:35:34.795Z,27.92
2019-03-30T09:38:03.809Z,28.18
2019-03-30T09:40:33.359Z,28.50
2019-03-30T09:43:03.371Z,28.90
2019-03-30T09:45:32.204Z,29.26
2019-03-30T09:48:00.998Z,29.61
2019-03-30T09:50:29.846Z,29.86
2019-03-30T09:52:58.673Z,30.13
2019-03-30T09:55:27.711Z,30.47
2019-03-30T09:57:56.983Z,30.79
2019-03-30T10:00:26.312Z,30.99
2019-03-30T10:02:55.205Z,30.87
2019-03-30T10:05:24.023Z,30.57
2019-03-30T10:07:54.024Z,30.41
2019-03-30T10:10:22.900Z,30.58
2019-03-30T10:12:51.747Z,30.52
2019-03-30T10:15:20.799Z,30.50
2019-03-30T10:17:49.720Z,30.64
2019-03-30T10:20:18.689Z,30.86
2019-03-30T10:22:47.703Z,30.93
2019-03-30T10:25:16.721Z,31.02
2019-03-30T10:27:46.861Z,30.97
2019-03-30T10:30:15.930Z,31.00
2019-03-30T10:32:45.184Z,31.09
2019-03-30T10:35:14.022Z,31.22
2019-03-30T10:37:43.169Z,31.09
2019-03-30T10:40:12.275Z,31.20
2019-03-30T10:42:41.116Z,31.45
2019-03-30T10:45:10.267Z,31.62
2019-03-30T10:47:39.117Z,31.58
2019-03-30T10:50:09.047Z,31.58
2019-03-30T10:52:43.361Z,31.74
2019-03-30T10:55:12.224Z,31.99
2019-03-30T10:57:42.228Z,32.31
2019-03-30T11:00:17.025Z,32.65
2019-03-30T11:02:46.791Z,33.01
2019-03-30T11:05:15.807Z,33.25
2019-03-30T11:07:44.684Z,33.16
2019-03-30T11:10:13.544Z,33.26
2019-03-30T11:12:42.574Z,33.34
2019-03-30T11:15:11.445Z,33.34
2019-03-30T11:17:40.340Z,33.54
2019-03-30T11:20:09.288Z,33.87
2019-03-30T11:22:38.496Z,34.28
2019-03-30T11:25:08.998Z,34.69
2019-03-30T11:27:38.278Z,35.02
2019-03-30T11:30:07.358Z,35.34
2019-03-30T11:32:36.238Z,35.68
2019-03-30T11:35:06.039Z,36.05
2019-03-30T11:37:34.909Z,36.36
2019-03-30T11:40:04.395Z,36.61
2019-03-30T11:42:33.347Z,36.77
2019-03-30T11:45:03.483Z,36.96
2019-03-30T11:47:32.748Z,37.16
2019-03-30T11:50:01.710Z,37.35
2019-03-30T11:52:30.647Z,37.52
2019-03-30T11:54:59.525Z,37.67
2019-03-30T11:57:28.549Z,37.92
2019-03-30T11:59:57.558Z,38.03
2019-03-30T12:02:28.101Z,38.07
2019-03-30T12:04:59.651Z,38.14
2019-03-30T12:07:29.049Z,38.03
2019-03-30T12:09:59.835Z,37.98
2019-03-30T12:12:28.728Z,37.95
2019-03-30T12:14:57.575Z,37.97
2019-03-30T12:17:26.431Z,38.06
2019-03-30T12:19:55.318Z,38.16
2019-03-30T12:22:24.186Z,38.21
2019-03-30T12:24:53.029Z,38.27
2019-03-30T12:27:22.260Z,38.29
2019-03-30T12:29:51.331Z,38.30
2019-03-30T12:32:20.204Z,38.40
2019-03-30T12:34:50.532Z,38.48
2019-03-30T12:37:19.548Z,38.59
2019-03-30T12:39:48.594Z,38.72
2019-03-30T12:42:17.440Z,38.77
2019-03-30T12:44:46.411Z,38.62
2019-03-30T12:47:15.268Z,38.52
2019-03-30T12:49:45.365Z,38.53
2019-03-30T12:52:14.497Z,38.63
2019-03-30T12:54:43.386Z,38.75
2019-03-30T12:57:12.216Z,38.86
2019-03-30T12:59:41.296Z,38.98
2019-03-30T13:02:11.581Z,39.11
2019-03-30T13:04:40.487Z,39.14
2019-03-30T13:07:09.645Z,39.08
2019-03-30T13:09:38.498Z,39.12
2019-03-30T13:12:07.346Z,39.19
2019-03-30T13:14:36.248Z,39.18
2019-03-30T13:17:07.547Z,39.17
2019-03-30T13:19:36.434Z,39.23
2019-03-30T13:22:05.259Z,39.25
2019-03-30T13:24:34.328Z,39.28
2019-03-30T13:27:04.618Z,39.33
2019-03-30T13:29:33.890Z,39.34
2019-03-30T13:32:02.737Z,39.24
2019-03-30T13:34:31.658Z,39.10
2019-03-30T13:37:14.002Z,38.85
2019-03-30T13:39:43.142Z,38.64
2019-03-30T13:42:14.001Z,38.56
2019-03-30T13:44:42.919Z,38.51
2019-03-30T13:47:12.241Z,38.46
2019-03-30T13:49:41.273Z,38.45
2019-03-30T13:52:10.271Z,38.40
2019-03-30T13:54:39.322Z,38.31
2019-03-30T13:57:08.244Z,38.03
2019-03-30T13:59:37.644Z,37.80
2019-03-30T14:02:07.068Z,37.60
2019-03-30T14:04:35.944Z,37.31
2019-03-30T14:07:06.278Z,37.18
2019-03-30T14:09:35.202Z,37.14
2019-03-30T14:12:05.640Z,36.96
2019-03-30T14:14:35.225Z,36.63
2019-03-30T14:17:05.579Z,36.17
2019-03-30T14:19:34.717Z,36.08
2019-03-30T14:22:03.715Z,36.05
2019-03-30T14:24:32.658Z,36.07
2019-03-30T14:27:01.520Z,36.02
2019-03-30T14:29:30.385Z,35.82
2019-03-30T14:31:59.286Z,35.65
2019-03-30T14:34:28.207Z,35.37
2019-03-30T14:36:57.037Z,35.02
2019-03-30T14:39:26.162Z,34.65
2019-03-30T14:41:54.998Z,34.17
2019-03-30T14:44:25.179Z,33.77
2019-03-30T14:46:54.029Z,33.26
2019-03-30T14:49:22.940Z,33.04
2019-03-30T14:51:52.480Z,32.89
2019-03-30T14:54:21.849Z,32.77
2019-03-30T14:56:50.715Z,32.44
2019-03-30T14:59:19.681Z,32.29
2019-03-30T15:01:49.323Z,32.24
2019-03-30T15:04:19.484Z,31.97
2019-03-30T15:06:48.392Z,31.68
2019-03-30T15:09:17.314Z,31.55
2019-03-30T15:11:46.403Z,31.40
2019-03-30T15:14:15.386Z,31.28
2019-03-30T15:16:44.263Z,31.15
2019-03-30T15:19:13.099Z,31.04
2019-03-30T15:21:42.159Z,30.83
2019-03-30T15:24:11.146Z,30.66
2019-03-30T15:26:40.471Z,30.50
2019-03-30T15:29:10.748Z,30.34
2019-03-30T15:31:43.849Z,30.18
2019-03-30T15:34:16.034Z,30.04
2019-03-30T15:36:44.929Z,29.85
2019-03-30T15:39:13.784Z,29.70
2019-03-30T15:41:43.000Z,29.52
2019-03-30T15:44:11.816Z,29.32
2019-03-30T15:46:40.702Z,29.10
2019-03-30T15:49:09.891Z,28.86
2019-03-30T15:51:38.871Z,28.65
2019-03-30T15:54:07.697Z,28.48
2019-03-30T15:56:36.601Z,28.27
2019-03-30T15:59:06.439Z,28.08
2019-03-30T16:01:35.339Z,27.92
2019-03-30T16:04:04.183Z,27.77
2019-03-30T16:06:33.462Z,27.61
2019-03-30T16:09:05.528Z,27.44
2019-03-30T16:11:34.506Z,27.26
2019-03-30T16:14:03.438Z,27.11
2019-03-30T16:16:32.556Z,27.00
2019-03-30T16:19:01.433Z,26.91
2019-03-30T16:21:30.391Z,26.79
2019-03-30T16:23:59.215Z,26.67
2019-03-30T16:26:41.327Z,26.55
2019-03-30T16:29:00.624Z,26.46
2019-03-30T16:31:29.494Z,26.32
2019-03-30T16:33:58.321Z,26.20
2019-03-30T16:36:27.556Z,26.08
2019-03-30T16:38:56.477Z,25.97
2019-03-30T16:41:25.347Z,25.87
2019-03-30T16:43:54.268Z,25.77
2019-03-30T16:46:23.239Z,25.67
2019-03-30T16:48:52.052Z,25.59
2019-03-30T16:51:20.970Z,25.54
2019-03-30T16:53:49.905Z,25.50
2019-03-30T16:56:18.790Z,25.45
2019-03-30T16:58:47.640Z,25.38
2019-03-30T17:01:16.540Z,25.31
2019-03-30T17:03:45.470Z,25.26
2019-03-30T17:06:14.479Z,25.20
2019-03-30T17:08:43.324Z,25.13
2019-03-30T17:11:12.524Z,25.07
2019-03-30T17:13:41.364Z,24.98
2019-03-30T17:16:10.340Z,24.89
2019-03-30T17:18:39.217Z,24.81
2019-03-30T17:21:09.383Z,24.72
2019-03-30T17:23:38.272Z,24.64
2019-03-30T17:26:07.124Z,24.56
2019-03-30T17:28:36.419Z,24.45
2019-03-30T17:31:07.934Z,24.36
2019-03-30T17:33:36.814Z,24.26
2019-03-30T17:36:05.734Z,24.15
2019-03-30T17:38:34.600Z,24.05
2019-03-30T17:41:03.510Z,23.92
2019-03-30T17:43:32.826Z,23.82
2019-03-30T17:46:01.660Z,23.72
2019-03-30T17:48:30.556Z,23.60
2019-03-30T17:51:09.525Z,23.50
2019-03-30T17:53:47.499Z,23.40
2019-03-30T17:56:17.248Z,23.29
2019-03-30T17:58:46.149Z,23.19
2019-03-30T18:01:15.895Z,23.10
2019-03-30T18:03:44.935Z,23.01
2019-03-30T18:06:13.788Z,22.92
2019-03-30T18:08:42.646Z,22.82
2019-03-30T18:11:11.483Z,22.72
2019-03-30T18:13:40.497Z,22.61
2019-03-30T18:16:09.330Z,22.51
2019-03-30T18:18:38.234Z,22.40
2019-03-30T18:21:08.272Z,22.29
2019-03-30T18:23:37.205Z,22.18
2019-03-30T18:26:06.054Z,22.07
2019-03-30T18:28:35.100Z,21.94
2019-03-30T18:31:03.949Z,21.84
2019-03-30T18:33:33.258Z,21.72
2019-03-30T18:36:03.020Z,21.61
2019-03-30T18:38:36.666Z,21.48
2019-03-30T18:41:06.902Z,21.32
2019-03-30T18:43:36.699Z,21.17
2019-03-30T18:46:05.556Z,20.99
2019-03-30T18:48:34.645Z,20.87
2019-03-30T18:51:03.753Z,20.78
2019-03-30T18:53:32.674Z,20.67
2019-03-30T18:56:01.508Z,20.57
2019-03-30T18:58:41.061Z,20.42
2019-03-30T19:01:01.527Z,20.30
2019-03-30T19:03:30.512Z,20.17
2019-03-30T19:05:59.710Z,20.08
2019-03-30T19:08:29.109Z,20.01
2019-03-30T19:10:57.960Z,19.90
2019-03-30T19:13:26.896Z,19.78
2019-03-30T19:15:55.761Z,19.66
2019-03-30T19:18:24.749Z,19.53
2019-03-30T19:20:54.081Z,19.39
2019-03-30T19:23:22.975Z,19.24
2019-03-30T19:25:53.096Z,19.12
2019-03-30T19:28:22.945Z,19.00
2019-03-30T19:30:51.900Z,18.88
2019-03-30T19:33:20.866Z,18.73
2019-03-30T19:35:50.171Z,18.59
2019-03-30T19:38:19.417Z,18.44
2019-03-30T19:40:48.475Z,18.31
2019-03-30T19:43:18.458Z,18.21
2019-03-30T19:45:47.980Z,18.12
2019-03-30T19:48:17.197Z,18.00
2019-03-30T19:50:46.499Z,17.90
2019-03-30T19:53:16.748Z,17.80
2019-03-30T19:55:45.766Z,17.69
2019-03-30T19:58:14.862Z,17.60
2019-03-30T20:00:43.756Z,17.53
2019-03-30T20:03:12.636Z,17.45
2019-03-30T20:05:44.481Z,17.39
2019-03-30T20:08:12.867Z,17.33
2019-03-30T20:10:41.898Z,17.27
2019-03-30T20:13:11.303Z,17.22
2019-03-30T20:15:40.431Z,17.16
2019-03-30T20:18:09.365Z,17.11
2019-03-30T20:20:38.353Z,17.06
2019-03-30T20:23:08.874Z,16.99
2019-03-30T20:25:37.749Z,16.92
2019-03-30T20:28:06.618Z,16.87
2019-03-30T20:30:35.514Z,16.79
2019-03-30T20:33:04.364Z,16.69
2019-03-30T20:35:33.332Z,16.60
2019-03-30T20:38:02.206Z,16.51
2019-03-30T20:40:31.088Z,16.41
2019-03-30T20:42:59.916Z,16.29
2019-03-30T20:45:29.185Z,16.20
2019-03-30T20:47:58.114Z,16.11
2019-03-30T20:50:27.000Z,16.02
2019-03-30T20:52:55.960Z,15.96
2019-03-30T20:55:24.852Z,15.92
2019-03-30T20:57:54.759Z,15.83
2019-03-30T21:00:23.989Z,15.78
2019-03-30T21:02:52.894Z,15.75
2019-03-30T21:05:21.848Z,15.70
2019-03-30T21:07:50.715Z,15.65
2019-03-30T21:10:19.617Z,15.58
2019-03-30T21:12:48.839Z,15.49
2019-03-30T21:15:17.772Z,15.45
2019-03-30T21:17:46.777Z,15.39
2019-03-30T21:20:15.689Z,15.37
2019-03-30T21:22:44.499Z,15.34
2019-03-30T21:25:13.405Z,15.29
2019-03-30T21:27:42.333Z,15.25
2019-03-30T21:30:12.915Z,15.20
2019-03-30T21:32:41.940Z,15.16
2019-03-30T21:35:12.745Z,15.13
2019-03-30T21:37:41.613Z,15.11
2019-03-30T21:40:10.807Z,15.08
2019-03-30T21:42:39.677Z,15.09
2019-03-30T21:45:10.360Z,15.06
2019-03-30T21:47:39.533Z,15.05
2019-03-30T21:50:08.685Z,14.99
2019-03-30T21:52:37.564Z,14.94
2019-03-30T21:55:07.215Z,14.87
2019-03-30T21:57:37.435Z,14.83
2019-03-30T22:00:10.557Z,14.79
2019-03-30T22:02:38.199Z,14.77
2019-03-30T22:05:09.317Z,14.70
2019-03-30T22:07:38.681Z,14.64
2019-03-30T22:10:10.287Z,14.57
2019-03-30T22:12:43.121Z,14.56
2019-03-30T22:15:20.462Z,14.56
2019-03-30T22:17:49.634Z,14.46
2019-03-30T22:20:21.289Z,14.42
2019-03-30T22:22:49.636Z,14.39
2019-03-30T22:25:18.538Z,14.33
2019-03-30T22:27:47.431Z,14.28
2019-03-30T22:30:24.546Z,14.22
2019-03-30T22:32:47.153Z,14.20
2019-03-30T22:35:16.079Z,14.16
2019-03-30T22:37:46.135Z,14.09
2019-03-30T22:40:15.009Z,14.03
2019-03-30T22:42:43.956Z,13.98
2019-03-30T22:45:13.027Z,13.93
2019-03-30T22:47:41.925Z,13.87
2019-03-30T22:50:11.007Z,13.86
2019-03-30T22:52:40.145Z,13.85
2019-03-30T22:55:11.769Z,13.82
2019-03-30T22:57:40.965Z,13.79
2019-03-30T23:00:20.892Z,13.76
2019-03-30T23:02:51.971Z,13.76
2019-03-30T23:05:20.876Z,13.75
2019-03-30T23:07:49.696Z,13.70
2019-03-30T23:10:18.769Z,13.63
2019-03-30T23:12:47.720Z,13.59
2019-03-30T23:15:16.583Z,13.55
2019-03-30T23:17:45.821Z,13.52
2019-03-30T23:20:14.694Z,13.49
2019-03-30T23:22:43.593Z,13.48
2019-03-30T23:25:13.598Z,13.44
2019-03-30T23:27:43.055Z,13.39
2019-03-30T23:30:12.219Z,13.37
2019-03-30T23:32:41.289Z,13.35
2019-03-30T23:35:11.851Z,13.34
2019-03-30T23:37:41.114Z,13.30
2019-03-30T23:40:10.277Z,13.26
2019-03-30T23:42:39.175Z,13.21
2019-03-30T23:45:08.150Z,13.18
2019-03-30T23:47:37.185Z,13.17
2019-03-30T23:50:06.114Z,13.12
2019-03-30T23:52:35.302Z,13.08
2019-03-30T23:55:04.291Z,13.04
2019-03-30T23:57:33.170Z,12.99
